Terminal Aerodrome Forecast
Issued by NWS

Current Version | Previous Version | Text Only | Print | Product List | Glossary Off
Versions: 1 2 3 4 5 6 7 8 9 10 11 12 13 14 15 16 17 18 19 20 21 22 23 24 25 26 27 28 29 30 31 32

000
FTUS41 KILN 270500
TAFLUK
TAF
KLUK 270534Z 2706/2806 20004KT P6SM BKN012
      TEMPO 2707/2711 1SM BR OVC008
     FM271400 22010KT P6SM FEW015
     FM272000 23012KT P6SM VCTS BKN040CB
     FM280000 24012KT P6SM FEW040 BKN100
     FM280500 24004KT P6SM FEW050=

USA.gov is the U.S. government's official web portal to all federal, state and local government web resources and services.